createdAt,value
2019-01-25T00:01:11.743Z,-3.60
2019-01-25T00:03:48.624Z,-3.50
2019-01-25T00:06:25.696Z,-3.50
2019-01-25T00:09:02.482Z,-3.60
2019-01-25T00:11:41.597Z,-3.60
2019-01-25T00:14:19.555Z,-3.60
2019-01-25T00:16:56.382Z,-3.50
2019-01-25T00:19:33.356Z,-3.50
2019-01-25T00:22:10.352Z,-3.50
2019-01-25T00:24:48.243Z,-3.50
2019-01-25T00:27:25.120Z,-3.60
2019-01-25T00:30:02.011Z,-3.50
2019-01-25T00:32:38.887Z,-3.50
2019-01-25T00:35:15.659Z,-3.50
2019-01-25T00:37:52.540Z,-3.50
2019-01-25T00:40:29.515Z,-3.50
2019-01-25T00:43:06.291Z,-3.50
2019-01-25T00:45:43.174Z,-3.50
2019-01-25T00:48:20.155Z,-3.60
2019-01-25T00:50:57.127Z,-3.50
2019-01-25T00:53:34.215Z,-3.50
2019-01-25T00:56:10.994Z,-3.60
2019-01-25T00:58:47.966Z,-3.60
2019-01-25T01:01:24.957Z,-3.60
2019-01-25T01:04:01.726Z,-3.50
2019-01-25T01:06:39.002Z,-3.60
2019-01-25T01:09:15.779Z,-3.50
2019-01-25T01:11:52.768Z,-3.50
2019-01-25T01:14:29.852Z,-3.60
2019-01-25T01:17:06.831Z,-3.60
2019-01-25T01:19:44.315Z,-3.60
2019-01-25T01:22:21.192Z,-3.60
2019-01-25T01:24:58.183Z,-3.60
2019-01-25T01:27:34.964Z,-3.60
2019-01-25T01:30:16.441Z,-3.50
2019-01-25T01:32:53.218Z,-3.60
2019-01-25T01:35:30.204Z,-3.60
2019-01-25T01:38:07.180Z,-3.60
2019-01-25T01:40:44.152Z,-3.50
2019-01-25T01:43:21.964Z,-3.50
2019-01-25T01:45:58.724Z,-3.60
2019-01-25T01:48:35.619Z,-3.60
2019-01-25T01:51:12.694Z,-3.60
2019-01-25T01:53:49.986Z,-3.60
2019-01-25T01:56:26.853Z,-3.60
2019-01-25T01:59:03.732Z,-3.70
2019-01-25T02:01:40.623Z,-3.70
2019-01-25T02:04:17.598Z,-3.70
2019-01-25T02:06:54.377Z,-3.70
2019-01-25T02:09:31.547Z,-3.70
2019-01-25T02:12:08.324Z,-3.60
2019-01-25T02:14:46.123Z,-3.50
2019-01-25T02:17:23.119Z,-3.60
2019-01-25T02:19:59.887Z,-3.70
2019-01-25T02:22:36.757Z,-3.50
2019-01-25T02:25:13.554Z,-3.50
2019-01-25T02:27:50.630Z,-3.50
2019-01-25T02:30:27.705Z,-3.60
2019-01-25T02:33:05.608Z,-3.60
2019-01-25T02:35:42.495Z,-3.60
2019-01-25T02:38:19.687Z,-3.60
2019-01-25T02:40:56.452Z,-3.60
2019-01-25T02:43:33.334Z,-3.60
2019-01-25T02:46:10.210Z,-3.60
2019-01-25T02:48:46.983Z,-3.70
2019-01-25T02:51:23.852Z,-3.80
2019-01-25T02:54:01.246Z,-3.80
2019-01-25T02:56:38.131Z,-3.70
2019-01-25T02:59:15.103Z,-3.70
2019-01-25T03:01:51.830Z,-3.70
2019-01-25T03:04:28.552Z,-3.80
2019-01-25T03:07:05.538Z,-3.80
2019-01-25T03:09:42.408Z,-3.80
2019-01-25T03:12:19.303Z,-3.90
2019-01-25T03:14:56.270Z,-3.90
2019-01-25T03:17:33.256Z,-3.80
2019-01-25T03:20:16.055Z,-3.80
2019-01-25T03:22:53.470Z,-3.80
2019-01-25T03:25:30.445Z,-3.80
2019-01-25T03:28:07.341Z,-3.80
2019-01-25T03:30:44.190Z,-3.80
2019-01-25T03:33:21.221Z,-3.80
2019-01-25T03:35:58.057Z,-3.80
2019-01-25T03:38:34.928Z,-3.80
2019-01-25T03:41:11.804Z,-3.70
2019-01-25T03:43:48.591Z,-3.80
2019-01-25T03:46:25.569Z,-3.90
2019-01-25T03:49:02.347Z,-4.00
2019-01-25T03:51:39.320Z,-3.90
2019-01-25T03:54:16.300Z,-3.90
2019-01-25T03:56:53.084Z,-3.80
2019-01-25T03:59:30.369Z,-3.80
2019-01-25T04:02:07.346Z,-3.80
2019-01-25T04:04:44.215Z,-3.70
2019-01-25T04:07:21.109Z,-3.70
2019-01-25T04:09:57.978Z,-3.70
2019-01-25T04:12:34.851Z,-3.70
2019-01-25T04:15:24.453Z,-3.70
2019-01-25T04:18:01.201Z,-3.50
2019-01-25T04:20:37.980Z,-3.50
2019-01-25T04:23:15.175Z,-3.50
2019-01-25T04:25:52.046Z,-3.40
2019-01-25T04:28:28.859Z,-3.30
2019-01-25T04:31:06.729Z,-3.30
2019-01-25T04:33:43.608Z,-3.20
2019-01-25T04:36:20.479Z,-3.20
2019-01-25T04:38:57.365Z,-3.20
2019-01-25T04:41:34.235Z,-3.40
2019-01-25T04:44:11.207Z,-3.40
2019-01-25T04:46:48.011Z,-3.50
2019-01-25T04:49:24.863Z,-3.50
2019-01-25T04:52:01.754Z,-3.60
2019-01-25T04:54:38.629Z,-3.70
2019-01-25T04:57:15.511Z,-3.60
2019-01-25T04:59:52.272Z,-3.70
2019-01-25T05:02:29.087Z,-3.70
2019-01-25T05:05:06.751Z,-3.60
2019-01-25T05:07:43.635Z,-3.60
2019-01-25T05:10:20.931Z,-3.70
2019-01-25T05:12:57.685Z,-3.70
2019-01-25T05:15:34.577Z,-3.70
2019-01-25T05:18:11.444Z,-3.60
2019-01-25T05:20:48.434Z,-3.50
2019-01-25T05:23:25.209Z,-3.60
2019-01-25T05:26:01.982Z,-3.50
2019-01-25T05:28:38.760Z,-3.60
2019-01-25T05:31:15.599Z,-3.50
2019-01-25T05:33:52.454Z,-3.50
2019-01-25T05:36:29.200Z,-3.60
2019-01-25T05:39:07.881Z,-3.60
2019-01-25T05:41:45.596Z,-3.70
2019-01-25T05:44:23.878Z,-3.60
2019-01-25T05:47:00.719Z,-3.60
2019-01-25T05:49:39.029Z,-3.50
2019-01-25T05:52:19.202Z,-3.50
2019-01-25T05:54:56.098Z,-3.50
2019-01-25T05:57:32.877Z,-3.40
2019-01-25T06:00:13.215Z,-3.40
2019-01-25T06:02:50.114Z,-3.30
2019-01-25T06:05:26.927Z,-3.40
2019-01-25T06:08:08.194Z,-3.50
2019-01-25T06:10:44.984Z,-3.50
2019-01-25T06:13:21.730Z,-3.50
2019-01-25T06:15:58.455Z,-3.50
2019-01-25T06:18:35.257Z,-3.40
2019-01-25T06:21:12.276Z,-3.20
2019-01-25T06:23:50.582Z,-3.40
2019-01-25T06:26:27.332Z,-3.40
2019-01-25T06:29:04.044Z,-3.40
2019-01-25T06:31:40.875Z,-3.40
2019-01-25T06:34:17.606Z,-3.40
2019-01-25T06:36:54.395Z,-3.40
2019-01-25T06:39:31.121Z,-3.40
2019-01-25T06:42:08.095Z,-3.30
2019-01-25T06:44:44.954Z,-3.20
2019-01-25T06:47:24.457Z,-3.30
2019-01-25T06:50:01.328Z,-3.30
2019-01-25T06:52:38.038Z,-3.20
2019-01-25T06:55:15.039Z,-3.30
2019-01-25T06:57:56.170Z,-3.30
2019-01-25T07:00:34.991Z,-3.40
2019-01-25T07:03:12.639Z,-3.40
2019-01-25T07:05:49.739Z,-3.40
2019-01-25T07:08:26.641Z,-3.40
2019-01-25T07:11:03.828Z,-3.50
2019-01-25T07:13:40.619Z,-3.50
2019-01-25T07:16:17.491Z,-3.60
2019-01-25T07:18:54.488Z,-3.50
2019-01-25T07:21:31.244Z,-3.40
2019-01-25T07:24:07.994Z,-3.50
2019-01-25T07:26:44.826Z,-3.40
2019-01-25T07:29:21.678Z,-3.40
2019-01-25T07:31:58.445Z,-3.40
2019-01-25T07:34:35.853Z,-3.20
2019-01-25T07:37:12.533Z,-3.20
2019-01-25T07:39:49.317Z,-3.10
2019-01-25T07:42:26.197Z,-2.90
2019-01-25T07:45:02.972Z,-2.90
2019-01-25T07:47:39.902Z,-3.00
2019-01-25T07:50:16.755Z,-3.00
2019-01-25T07:52:53.542Z,-2.90
2019-01-25T07:55:30.263Z,-2.80
2019-01-25T07:58:06.990Z,-2.70
2019-01-25T08:00:43.697Z,-2.80
2019-01-25T08:03:20.539Z,-2.70
2019-01-25T08:05:57.245Z,-2.70
2019-01-25T08:08:34.020Z,-2.70
2019-01-25T08:11:11.011Z,-2.70
2019-01-25T08:13:48.011Z,-2.70
2019-01-25T08:16:25.184Z,-2.90
2019-01-25T08:19:02.066Z,-2.90
2019-01-25T08:21:38.979Z,-2.80
2019-01-25T08:24:15.797Z,-2.90
2019-01-25T08:26:52.517Z,-2.80
2019-01-25T08:29:29.269Z,-2.80
2019-01-25T08:32:06.157Z,-2.90
2019-01-25T08:34:42.939Z,-2.70
2019-01-25T08:37:19.719Z,-2.50
2019-01-25T08:39:59.236Z,-2.60
2019-01-25T08:42:36.206Z,-2.50
2019-01-25T08:45:16.401Z,-2.30
2019-01-25T08:47:53.216Z,-2.20
2019-01-25T08:50:30.149Z,-2.30
2019-01-25T08:53:07.075Z,-2.30
2019-01-25T08:55:43.937Z,-2.30
2019-01-25T08:58:21.154Z,-2.20
2019-01-25T09:00:57.984Z,-2.10
2019-01-25T09:03:34.859Z,-2.10
2019-01-25T09:06:11.674Z,-2.30
2019-01-25T09:08:48.474Z,-2.20
2019-01-25T09:11:26.292Z,-2.10
2019-01-25T09:14:03.052Z,-2.10
2019-01-25T09:16:39.769Z,-1.90
2019-01-25T09:19:16.458Z,-1.80
2019-01-25T09:21:53.303Z,-1.70
2019-01-25T09:24:30.067Z,-1.90
2019-01-25T09:27:07.012Z,-1.90
2019-01-25T09:29:43.736Z,-1.90
2019-01-25T09:32:20.630Z,-1.80
2019-01-25T09:34:57.402Z,-1.90
2019-01-25T09:37:34.232Z,-1.90
2019-01-25T09:40:15.313Z,-1.90
2019-01-25T09:42:52.741Z,-2.00
2019-01-25T09:45:29.530Z,-2.00
2019-01-25T09:48:07.573Z,-2.00
2019-01-25T09:50:44.282Z,-1.90
2019-01-25T09:53:21.138Z,-2.00
2019-01-25T09:55:57.892Z,-2.20
2019-01-25T09:58:35.373Z,-2.20
2019-01-25T10:01:12.268Z,-2.20
2019-01-25T10:03:49.039Z,-2.10
2019-01-25T10:06:25.821Z,-2.10
2019-01-25T10:09:03.516Z,-2.00
2019-01-25T10:11:40.530Z,-2.10
2019-01-25T10:14:17.528Z,-2.10
2019-01-25T10:16:54.210Z,-2.20
2019-01-25T10:19:30.947Z,-2.30
2019-01-25T10:22:08.784Z,-2.20
2019-01-25T10:24:45.726Z,-2.10
2019-01-25T10:27:22.721Z,-2.00
2019-01-25T10:29:59.458Z,-1.90
2019-01-25T10:32:36.437Z,-2.00
2019-01-25T10:35:13.714Z,-2.10
2019-01-25T10:37:50.913Z,-2.20
2019-01-25T10:40:28.001Z,-2.10
2019-01-25T10:43:05.203Z,-2.10
2019-01-25T10:45:44.310Z,-2.30
2019-01-25T10:48:21.085Z,-2.40
2019-01-25T10:50:58.059Z,-2.50
2019-01-25T10:53:34.951Z,-2.50
2019-01-25T10:56:11.922Z,-2.40
2019-01-25T10:58:48.687Z,-2.40
2019-01-25T11:01:25.674Z,-2.30
2019-01-25T11:04:02.453Z,-2.40
2019-01-25T11:06:39.322Z,-2.60
2019-01-25T11:09:16.104Z,-2.40
2019-01-25T11:11:53.120Z,-2.20
2019-01-25T11:14:29.966Z,-2.30
2019-01-25T11:17:06.949Z,-2.30
2019-01-25T11:19:43.829Z,-2.40
2019-01-25T11:22:20.773Z,-2.30
2019-01-25T11:24:57.468Z,-2.50
2019-01-25T11:27:34.248Z,-2.50
2019-01-25T11:30:15.451Z,-2.50
2019-01-25T11:32:52.304Z,-2.60
2019-01-25T11:35:29.085Z,-2.60
2019-01-25T11:38:05.953Z,-2.60
2019-01-25T11:40:44.314Z,-2.70
2019-01-25T11:43:21.245Z,-2.80
2019-01-25T11:45:58.032Z,-2.70
2019-01-25T11:48:34.815Z,-2.70
2019-01-25T11:51:11.993Z,-2.70
2019-01-25T11:53:48.762Z,-2.70
2019-01-25T11:56:25.744Z,-2.70
2019-01-25T11:59:02.726Z,-2.80
2019-01-25T12:01:39.607Z,-3.00
2019-01-25T12:04:16.330Z,-3.00
2019-01-25T12:06:53.249Z,-2.90
2019-01-25T12:09:30.031Z,-2.90
2019-01-25T12:12:06.917Z,-3.00
2019-01-25T12:14:43.691Z,-2.90
2019-01-25T12:17:21.490Z,-3.00
2019-01-25T12:19:58.471Z,-3.00
2019-01-25T12:22:35.256Z,-2.80
2019-01-25T12:25:13.663Z,-2.70
2019-01-25T12:27:50.643Z,-2.50
2019-01-25T12:30:38.163Z,-2.50
2019-01-25T12:33:16.278Z,-2.50
2019-01-25T12:35:53.265Z,-2.50
2019-01-25T12:38:30.138Z,-2.40
2019-01-25T12:41:07.127Z,-2.50
2019-01-25T12:43:43.993Z,-2.60
2019-01-25T12:46:21.067Z,-2.60
2019-01-25T12:48:57.837Z,-2.70
2019-01-25T12:51:35.438Z,-2.70
2019-01-25T12:54:12.328Z,-2.80
2019-01-25T12:56:49.301Z,-2.70
2019-01-25T12:59:26.081Z,-2.60
2019-01-25T13:02:02.969Z,-2.80
2019-01-25T13:04:39.940Z,-2.90
2019-01-25T13:07:16.920Z,-2.90
2019-01-25T13:09:53.794Z,-2.80
2019-01-25T13:12:30.883Z,-2.70
2019-01-25T13:15:10.063Z,-2.70
2019-01-25T13:17:46.874Z,-2.70
2019-01-25T13:20:29.420Z,-2.60
2019-01-25T13:23:06.159Z,-2.70
2019-01-25T13:26:14.702Z,-2.70
2019-01-25T13:28:58.690Z,-2.80
2019-01-25T13:31:41.670Z,-2.80
2019-01-25T13:34:18.650Z,-2.80
2019-01-25T13:36:57.156Z,-2.90
2019-01-25T13:39:34.233Z,-2.90
2019-01-25T13:42:11.115Z,-3.00
2019-01-25T13:44:47.987Z,-3.10
2019-01-25T13:47:24.766Z,-3.20
2019-01-25T13:50:02.047Z,-3.20
2019-01-25T13:52:38.829Z,-3.20
2019-01-25T13:55:16.958Z,-3.10
2019-01-25T13:57:53.827Z,-3.00
2019-01-25T14:00:35.715Z,-3.00
2019-01-25T14:03:12.490Z,-2.90
2019-01-25T14:05:49.371Z,-2.90
2019-01-25T14:08:26.129Z,-2.80
2019-01-25T14:11:02.931Z,-2.80
2019-01-25T14:13:46.656Z,-2.80
2019-01-25T14:16:18.299Z,-2.70
2019-01-25T14:18:55.183Z,-2.70
2019-01-25T14:21:32.124Z,-2.60
2019-01-25T14:24:08.908Z,-2.40
2019-01-25T14:26:45.763Z,-2.50
2019-01-25T14:29:22.561Z,-2.40
2019-01-25T14:31:59.335Z,-2.40
2019-01-25T14:34:36.543Z,-2.50
2019-01-25T14:37:13.354Z,-2.50
2019-01-25T14:39:50.129Z,-2.40
2019-01-25T14:42:27.154Z,-2.40
2019-01-25T14:45:05.254Z,-2.30
2019-01-25T14:47:42.063Z,-2.40
2019-01-25T14:50:22.241Z,-2.40
2019-01-25T14:52:59.165Z,-2.30
2019-01-25T14:55:35.950Z,-2.40
2019-01-25T14:58:12.674Z,-2.50
2019-01-25T15:00:49.551Z,-2.50
2019-01-25T15:03:26.364Z,-2.40
2019-01-25T15:06:03.234Z,-2.40
2019-01-25T15:08:40.190Z,-2.40
2019-01-25T15:11:17.044Z,-2.60
2019-01-25T15:13:53.861Z,-2.60
2019-01-25T15:16:30.580Z,-2.50
2019-01-25T15:19:07.346Z,-2.50
2019-01-25T15:21:44.146Z,-2.50
2019-01-25T15:24:21.003Z,-2.60
2019-01-25T15:26:57.818Z,-2.60
2019-01-25T15:29:34.574Z,-2.70
2019-01-25T15:32:11.367Z,-2.60
2019-01-25T15:34:48.176Z,-2.70
2019-01-25T15:37:24.890Z,-2.70
2019-01-25T15:40:01.857Z,-2.60
2019-01-25T15:42:38.814Z,-2.50
2019-01-25T15:45:18.219Z,-2.40
2019-01-25T15:47:55.000Z,-2.30
2019-01-25T15:50:32.453Z,-2.30
2019-01-25T15:53:09.338Z,-2.30
2019-01-25T15:55:46.111Z,-2.30
2019-01-25T15:58:22.830Z,-2.30
2019-01-25T16:00:59.625Z,-2.20
2019-01-25T16:03:36.451Z,-2.20
2019-01-25T16:06:13.236Z,-2.20
2019-01-25T16:08:50.215Z,-2.20
2019-01-25T16:11:26.970Z,-2.20
2019-01-25T16:14:03.758Z,-2.20
2019-01-25T16:16:40.932Z,-2.20
2019-01-25T16:19:17.756Z,-2.30
2019-01-25T16:21:54.558Z,-2.30
2019-01-25T16:24:31.858Z,-2.40
2019-01-25T16:27:08.645Z,-2.50
2019-01-25T16:29:45.904Z,-2.60
2019-01-25T16:32:22.822Z,-2.60
2019-01-25T16:34:59.716Z,-2.60
2019-01-25T16:37:36.419Z,-2.60
2019-01-25T16:40:22.752Z,-2.70
2019-01-25T16:42:59.571Z,-2.70
2019-01-25T16:45:40.498Z,-2.70
2019-01-25T16:48:17.238Z,-2.70
2019-01-25T16:50:54.080Z,-2.70
2019-01-25T16:53:31.173Z,-2.70
2019-01-25T16:56:07.880Z,-2.60
2019-01-25T16:58:44.697Z,-2.70
2019-01-25T17:01:21.632Z,-2.70
2019-01-25T17:04:36.855Z,-2.60
2019-01-25T17:07:31.136Z,-2.60
2019-01-25T17:10:26.086Z,-2.60
2019-01-25T17:13:02.990Z,-2.60
2019-01-25T17:15:39.795Z,-2.60
2019-01-25T17:18:16.674Z,-2.60
2019-01-25T17:20:53.444Z,-2.60
2019-01-25T17:23:30.320Z,-2.60
2019-01-25T17:26:08.214Z,-2.60
2019-01-25T17:28:45.092Z,-2.50
2019-01-25T17:31:22.805Z,-2.50
2019-01-25T17:33:59.656Z,-2.50
2019-01-25T17:36:36.415Z,-2.60
2019-01-25T17:39:15.312Z,-2.60
2019-01-25T17:41:52.569Z,-2.70
2019-01-25T17:44:31.226Z,-2.60
2019-01-25T17:47:08.079Z,-2.70
2019-01-25T17:49:44.967Z,-2.70
2019-01-25T17:52:21.824Z,-2.60
2019-01-25T17:54:58.613Z,-2.70
2019-01-25T17:57:35.394Z,-2.60
2019-01-25T18:00:44.545Z,-2.60
2019-01-25T18:03:21.456Z,-2.70
2019-01-25T18:05:58.643Z,-2.60
2019-01-25T18:08:35.469Z,-2.60
2019-01-25T18:11:13.198Z,-2.50
2019-01-25T18:13:49.947Z,-2.40
2019-01-25T18:16:26.694Z,-2.30
2019-01-25T18:19:03.462Z,-2.30
2019-01-25T18:21:40.350Z,-2.30
2019-01-25T18:24:17.228Z,-2.30
2019-01-25T18:26:54.075Z,-2.30
2019-01-25T18:29:30.925Z,-2.20
2019-01-25T18:32:08.676Z,-2.20
2019-01-25T18:34:45.564Z,-2.20
2019-01-25T18:37:22.285Z,-2.10
2019-01-25T18:39:59.184Z,-2.10
2019-01-25T18:42:36.221Z,-2.10
2019-01-25T18:45:13.061Z,-2.10
2019-01-25T18:47:52.076Z,-2.10
2019-01-25T18:50:28.863Z,-2.20
2019-01-25T18:53:07.899Z,-2.10
2019-01-25T18:55:44.679Z,-2.10
2019-01-25T18:58:22.469Z,-2.10
2019-01-25T19:00:59.245Z,-2.10
2019-01-25T19:03:36.440Z,-2.20
2019-01-25T19:06:14.025Z,-2.20
2019-01-25T19:08:50.805Z,-2.20
2019-01-25T19:11:27.679Z,-2.20
2019-01-25T19:14:04.567Z,-2.20
2019-01-25T19:16:41.447Z,-2.30
2019-01-25T19:19:18.218Z,-2.30
2019-01-25T19:21:55.402Z,-2.40
2019-01-25T19:24:32.116Z,-2.40
2019-01-25T19:27:08.843Z,-2.40
2019-01-25T19:29:46.853Z,-2.40
2019-01-25T19:32:23.832Z,-2.40
2019-01-25T19:35:00.713Z,-2.50
2019-01-25T19:37:37.593Z,-2.50
2019-01-25T19:40:18.783Z,-2.50
2019-01-25T19:42:55.859Z,-2.40
2019-01-25T19:45:32.726Z,-2.30
2019-01-25T19:48:09.610Z,-2.30
2019-01-25T19:50:46.387Z,-2.30
2019-01-25T19:53:23.739Z,-2.20
2019-01-25T19:56:00.646Z,-2.20
2019-01-25T19:58:37.933Z,-2.20
2019-01-25T20:01:14.888Z,-2.20
2019-01-25T20:03:51.899Z,-2.20
2019-01-25T20:06:28.885Z,-2.10
2019-01-25T20:09:08.117Z,-2.10
2019-01-25T20:11:46.216Z,-2.10
2019-01-25T20:14:22.999Z,-2.10
2019-01-25T20:17:00.898Z,-2.00
2019-01-25T20:19:38.276Z,-2.00
2019-01-25T20:22:15.263Z,-2.00
2019-01-25T20:24:52.242Z,-2.00
2019-01-25T20:27:29.231Z,-1.90
2019-01-25T20:30:16.449Z,-1.90
2019-01-25T20:32:53.432Z,-1.90
2019-01-25T20:35:37.157Z,-1.90
2019-01-25T20:38:14.139Z,-1.90
2019-01-25T20:40:52.040Z,-1.90
2019-01-25T20:43:29.032Z,-1.80
2019-01-25T20:46:06.720Z,-1.80
2019-01-25T20:48:43.713Z,-1.90
2019-01-25T20:51:20.488Z,-1.80
2019-01-25T20:53:57.351Z,-1.80
2019-01-25T20:56:34.269Z,-1.90
2019-01-25T20:59:11.224Z,-1.90
2019-01-25T21:01:48.202Z,-1.90
2019-01-25T21:04:24.973Z,-1.90
2019-01-25T21:07:01.955Z,-1.90
2019-01-25T21:09:38.829Z,-1.80
2019-01-25T21:12:15.713Z,-1.80
2019-01-25T21:14:54.539Z,-1.80
2019-01-25T21:17:31.403Z,-1.80
2019-01-25T21:20:13.713Z,-1.80
2019-01-25T21:22:50.586Z,-1.80
2019-01-25T21:25:27.367Z,-1.90
2019-01-25T21:28:04.404Z,-1.80
2019-01-25T21:30:42.357Z,-1.80
2019-01-25T21:33:19.240Z,-1.80
2019-01-25T21:35:56.007Z,-1.80
2019-01-25T21:38:33.088Z,-1.80
2019-01-25T21:41:10.581Z,-1.80
2019-01-25T21:43:47.352Z,-1.90
2019-01-25T21:46:24.338Z,-1.90
2019-01-25T21:49:02.248Z,-1.90
2019-01-25T21:51:39.248Z,-1.90
2019-01-25T21:54:18.154Z,-1.90
2019-01-25T21:56:54.917Z,-1.90
2019-01-25T21:59:31.694Z,-1.90
2019-01-25T22:02:08.477Z,-1.90
2019-01-25T22:04:46.788Z,-2.00
2019-01-25T22:07:23.571Z,-2.00
2019-01-25T22:10:00.543Z,-2.10
2019-01-25T22:12:38.761Z,-2.10
2019-01-25T22:15:18.292Z,-2.10
2019-01-25T22:17:56.101Z,-2.10
2019-01-25T22:20:34.509Z,-2.10
2019-01-25T22:23:11.481Z,-2.00
2019-01-25T22:25:48.476Z,-2.10
2019-01-25T22:28:25.454Z,-2.10
2019-01-25T22:31:02.225Z,-2.10
2019-01-25T22:33:39.211Z,-2.20
2019-01-25T22:36:16.073Z,-2.20
2019-01-25T22:38:53.060Z,-2.20
2019-01-25T22:41:29.948Z,-2.20
2019-01-25T22:44:06.714Z,-2.20
2019-01-25T22:46:43.700Z,-2.20
2019-01-25T22:49:20.478Z,-2.30
2019-01-25T22:51:57.350Z,-2.30
2019-01-25T22:54:34.339Z,-2.30
2019-01-25T22:57:11.120Z,-2.30
2019-01-25T22:59:49.118Z,-2.30
2019-01-25T23:02:26.093Z,-2.30
2019-01-25T23:05:28.979Z,-2.20
2019-01-25T23:08:06.153Z,-2.20
2019-01-25T23:10:43.051Z,-2.30
2019-01-25T23:13:20.946Z,-2.20
2019-01-25T23:16:06.150Z,-2.20
2019-01-25T23:18:37.459Z,-2.20
2019-01-25T23:21:15.573Z,-2.20
2019-01-25T23:23:52.430Z,-2.10
2019-01-25T23:26:29.424Z,-2.10
2019-01-25T23:29:06.298Z,-2.10
2019-01-25T23:31:43.186Z,-2.10
2019-01-25T23:34:20.060Z,-2.10
2019-01-25T23:36:57.956Z,-2.10
2019-01-25T23:39:34.739Z,-2.10
2019-01-25T23:42:11.626Z,-2.00
2019-01-25T23:44:48.604Z,-2.00
2019-01-25T23:47:26.591Z,-2.00
2019-01-25T23:50:05.014Z,-2.00
2019-01-25T23:52:41.885Z,-2.00
2019-01-25T23:55:18.820Z,-2.00
2019-01-25T23:57:55.845Z,-2.00
